createdAt,value
2023-05-20T00:00:53.200Z,7.13
2023-05-20T00:03:23.299Z,11.13
2023-05-20T00:05:50.069Z,4.45
2023-05-20T00:08:16.782Z,9.98
2023-05-20T00:10:43.421Z,9.70
2023-05-20T00:13:10.115Z,8.05
2023-05-20T00:15:37.095Z,4.32
2023-05-20T00:18:04.221Z,7.00
2023-05-20T00:20:31.163Z,8.82
2023-05-20T00:22:57.840Z,6.63
2023-05-20T00:25:24.590Z,5.90
2023-05-20T00:27:51.230Z,5.93
2023-05-20T00:30:17.961Z,9.85
2023-05-20T00:32:44.634Z,9.70
2023-05-20T00:35:11.688Z,5.68
2023-05-20T00:37:38.514Z,6.45
2023-05-20T00:40:05.750Z,9.32
2023-05-20T00:42:32.409Z,8.18
2023-05-20T00:44:59.425Z,6.60
2023-05-20T00:47:26.289Z,10.05
2023-05-20T00:49:53.031Z,11.43
2023-05-20T00:52:19.712Z,16.30
2023-05-20T00:54:46.396Z,11.20
2023-05-20T00:57:13.183Z,8.63
2023-05-20T00:59:39.842Z,6.55
2023-05-20T01:02:06.522Z,6.93
2023-05-20T01:04:33.239Z,13.82
2023-05-20T01:06:59.947Z,5.43
2023-05-20T01:09:26.684Z,8.65
2023-05-20T01:11:53.326Z,19.73
2023-05-20T01:14:20.008Z,5.75
2023-05-20T01:16:48.192Z,10.07
2023-05-20T01:19:14.943Z,5.40
2023-05-20T01:21:41.811Z,12.27
2023-05-20T01:24:08.686Z,8.98
2023-05-20T01:26:38.450Z,6.03
2023-05-20T01:29:05.589Z,11.38
2023-05-20T01:31:32.625Z,28.88
2023-05-20T01:33:59.405Z,6.90
2023-05-20T01:36:27.214Z,5.60
2023-05-20T01:38:53.900Z,8.02
2023-05-20T01:41:20.953Z,11.80
2023-05-20T01:43:47.605Z,7.32
2023-05-20T01:46:14.302Z,9.63
2023-05-20T01:48:41.278Z,9.77
2023-05-20T01:51:07.961Z,11.52
2023-05-20T01:53:34.693Z,7.65
2023-05-20T01:56:01.357Z,10.80
2023-05-20T01:58:27.990Z,8.93
2023-05-20T02:00:54.714Z,8.23
2023-05-20T02:03:21.561Z,12.52
2023-05-20T02:05:48.299Z,6.97
2023-05-20T02:08:14.956Z,6.45
2023-05-20T02:10:41.646Z,7.25
2023-05-20T02:13:08.336Z,9.13
2023-05-20T02:15:35.189Z,19.02
2023-05-20T02:18:02.618Z,6.20
2023-05-20T02:20:29.337Z,8.80
2023-05-20T02:22:56.197Z,7.63
2023-05-20T02:25:22.888Z,9.13
2023-05-20T02:27:49.546Z,14.10
2023-05-20T02:30:17.364Z,7.97
2023-05-20T02:32:44.078Z,14.57
2023-05-20T02:35:10.774Z,17.77
2023-05-20T02:37:39.492Z,6.57
2023-05-20T02:40:06.679Z,12.65
2023-05-20T02:42:33.345Z,15.23
2023-05-20T02:45:00.024Z,11.30
2023-05-20T02:47:26.742Z,6.70
2023-05-20T02:49:53.460Z,10.75
2023-05-20T02:52:20.481Z,9.10
2023-05-20T02:54:47.104Z,10.95
2023-05-20T02:57:13.788Z,9.98
2023-05-20T02:59:40.459Z,9.80
2023-05-20T03:02:07.538Z,10.85
2023-05-20T03:04:34.260Z,9.20
2023-05-20T03:07:00.932Z,9.23
2023-05-20T03:09:28.206Z,10.10
2023-05-20T03:11:55.019Z,13.27
2023-05-20T03:14:21.647Z,7.03
2023-05-20T03:16:48.327Z,9.32
2023-05-20T03:19:15.142Z,18.20
2023-05-20T03:21:41.832Z,13.85
2023-05-20T03:24:08.519Z,17.25
2023-05-20T03:26:37.770Z,9.02
2023-05-20T03:29:04.430Z,9.63
2023-05-20T03:31:31.116Z,9.07
2023-05-20T03:33:57.839Z,7.90
2023-05-20T03:36:24.480Z,11.07
2023-05-20T03:38:51.302Z,10.40
2023-05-20T03:41:17.985Z,10.05
2023-05-20T03:43:44.619Z,8.68
2023-05-20T03:46:11.441Z,12.82
2023-05-20T03:48:38.090Z,8.07
2023-05-20T03:51:04.810Z,9.48
2023-05-20T03:53:31.504Z,19.13
2023-05-20T03:55:58.165Z,17.92
2023-05-20T03:58:25.378Z,10.20
2023-05-20T04:00:52.028Z,11.88
2023-05-20T04:03:18.782Z,11.13
2023-05-20T04:05:45.576Z,12.15
2023-05-20T04:08:13.809Z,11.98
2023-05-20T04:10:40.492Z,8.95
2023-05-20T04:13:07.346Z,9.85
2023-05-20T04:15:35.425Z,11.45
2023-05-20T04:18:02.627Z,19.17
2023-05-20T04:20:29.372Z,16.50
2023-05-20T04:22:56.195Z,13.95
2023-05-20T04:25:22.850Z,7.78
2023-05-20T04:27:49.882Z,16.20
2023-05-20T04:30:20.517Z,14.07
2023-05-20T04:32:48.401Z,22.47
2023-05-20T04:35:15.099Z,17.20
2023-05-20T04:37:47.752Z,13.77
2023-05-20T04:40:14.381Z,18.90
2023-05-20T04:42:41.054Z,14.38
2023-05-20T04:45:08.877Z,14.20
2023-05-20T04:47:38.953Z,11.60
2023-05-20T04:50:06.039Z,13.55
2023-05-20T04:52:32.690Z,11.85
2023-05-20T04:55:01.917Z,19.23
2023-05-20T04:57:28.587Z,21.20
2023-05-20T04:59:58.777Z,15.57
2023-05-20T05:02:25.481Z,17.20
2023-05-20T05:04:52.189Z,12.60
2023-05-20T05:07:18.931Z,12.82
2023-05-20T05:09:45.635Z,32.10
2023-05-20T05:12:12.278Z,16.13
2023-05-20T05:14:38.901Z,11.45
2023-05-20T05:17:05.570Z,15.45
2023-05-20T05:19:32.216Z,15.40
2023-05-20T05:21:58.848Z,16.88
2023-05-20T05:24:25.585Z,17.42
2023-05-20T05:26:52.230Z,14.68
2023-05-20T05:29:18.903Z,11.18
2023-05-20T05:31:45.786Z,9.95
2023-05-20T05:34:12.432Z,23.63
2023-05-20T05:36:39.123Z,11.02
2023-05-20T05:39:05.799Z,11.73
2023-05-20T05:41:32.485Z,13.35
2023-05-20T05:43:59.102Z,15.82
2023-05-20T05:46:25.874Z,16.50
2023-05-20T05:48:52.577Z,12.93
2023-05-20T05:51:19.212Z,11.15
2023-05-20T05:53:46.024Z,14.05
2023-05-20T05:56:12.659Z,11.68
2023-05-20T05:58:39.329Z,22.50
2023-05-20T06:01:06.265Z,12.73
2023-05-20T06:03:33.165Z,15.75
2023-05-20T06:05:59.868Z,15.52
2023-05-20T06:08:26.678Z,16.60
2023-05-20T06:10:53.333Z,13.88
2023-05-20T06:13:20.044Z,15.13
2023-05-20T06:15:46.704Z,15.68
2023-05-20T06:18:13.403Z,15.68
2023-05-20T06:20:40.114Z,12.25
2023-05-20T06:23:06.888Z,11.25
2023-05-20T06:25:33.732Z,10.13
2023-05-20T06:28:00.471Z,15.02
2023-05-20T06:30:27.199Z,21.13
2023-05-20T06:32:53.948Z,19.08
2023-05-20T06:35:20.653Z,16.50
2023-05-20T06:37:47.336Z,14.02
2023-05-20T06:40:13.966Z,14.63
2023-05-20T06:42:40.654Z,16.05
2023-05-20T06:45:07.294Z,15.80
2023-05-20T06:47:33.935Z,19.20
2023-05-20T06:50:00.610Z,9.68
2023-05-20T06:52:27.269Z,11.52
2023-05-20T06:54:53.941Z,12.98
2023-05-20T06:57:23.126Z,16.83
2023-05-20T06:59:49.788Z,10.77
2023-05-20T07:02:16.485Z,12.18
2023-05-20T07:04:43.164Z,13.10
2023-05-20T07:07:09.880Z,16.13
2023-05-20T07:09:36.570Z,11.98
2023-05-20T07:12:03.703Z,13.93
2023-05-20T07:14:30.474Z,9.40
2023-05-20T07:16:57.162Z,13.18
2023-05-20T07:19:23.857Z,11.60
2023-05-20T07:21:50.613Z,11.43
2023-05-20T07:24:17.302Z,10.65
2023-05-20T07:26:43.917Z,18.52
2023-05-20T07:29:10.639Z,19.35
2023-05-20T07:31:37.304Z,10.88
2023-05-20T07:34:04.025Z,13.65
2023-05-20T07:36:30.905Z,10.85
2023-05-20T07:39:03.961Z,15.18
2023-05-20T07:41:31.796Z,12.27
2023-05-20T07:43:58.434Z,14.90
2023-05-20T07:46:25.250Z,12.02
2023-05-20T07:48:51.993Z,15.10
2023-05-20T07:51:19.123Z,11.60
2023-05-20T07:53:45.848Z,15.13
2023-05-20T07:56:12.692Z,10.75
2023-05-20T07:58:39.352Z,15.95
2023-05-20T08:01:06.441Z,14.05
2023-05-20T08:03:33.302Z,22.00
2023-05-20T08:06:00.002Z,14.45
2023-05-20T08:08:26.908Z,19.48
2023-05-20T08:10:53.622Z,11.73
2023-05-20T08:13:20.326Z,11.75
2023-05-20T08:15:48.719Z,11.02
2023-05-20T08:18:15.422Z,12.93
2023-05-20T08:20:42.908Z,11.75
2023-05-20T08:23:09.595Z,12.07
2023-05-20T08:25:36.780Z,19.35
2023-05-20T08:28:04.091Z,18.13
2023-05-20T08:30:30.899Z,12.43
2023-05-20T08:32:57.741Z,14.63
2023-05-20T08:35:24.887Z,14.82
2023-05-20T08:37:54.190Z,11.80
2023-05-20T08:40:21.531Z,12.75
2023-05-20T08:42:48.287Z,15.52
2023-05-20T08:45:14.944Z,17.98
2023-05-20T08:47:42.123Z,16.70
2023-05-20T08:50:08.786Z,7.40
2023-05-20T08:52:35.455Z,18.30
2023-05-20T08:55:02.093Z,12.00
2023-05-20T08:57:28.714Z,18.92
2023-05-20T08:59:55.493Z,14.30
2023-05-20T09:02:23.301Z,13.70
2023-05-20T09:04:50.048Z,9.93
2023-05-20T09:07:16.730Z,17.13
2023-05-20T09:09:43.362Z,14.43
2023-05-20T09:12:11.408Z,11.95
2023-05-20T09:14:38.088Z,15.00
2023-05-20T09:17:04.813Z,7.03
2023-05-20T09:19:32.074Z,11.00
2023-05-20T09:21:58.729Z,15.57
2023-05-20T09:24:25.591Z,17.67
2023-05-20T09:26:52.323Z,10.20
2023-05-20T09:29:21.679Z,9.93
2023-05-20T09:31:48.906Z,12.25
2023-05-20T09:34:16.558Z,11.05
2023-05-20T09:36:43.192Z,8.95
2023-05-20T09:39:10.008Z,10.13
2023-05-20T09:41:37.060Z,8.95
2023-05-20T09:44:04.175Z,9.50
2023-05-20T09:46:31.507Z,6.40
2023-05-20T09:48:58.714Z,7.38
2023-05-20T09:51:25.513Z,11.00
2023-05-20T09:53:52.374Z,9.90
2023-05-20T09:56:19.143Z,11.32
2023-05-20T09:58:46.126Z,13.35
2023-05-20T10:01:13.584Z,11.48
2023-05-20T10:03:41.905Z,7.13
2023-05-20T10:06:10.720Z,8.97
2023-05-20T10:08:37.394Z,17.10
2023-05-20T10:11:04.085Z,5.88
2023-05-20T10:13:30.817Z,6.32
2023-05-20T10:15:57.481Z,5.65
2023-05-20T10:18:24.445Z,9.20
2023-05-20T10:20:51.397Z,8.52
2023-05-20T10:23:18.093Z,10.05
2023-05-20T10:25:44.744Z,9.52
2023-05-20T10:28:11.510Z,15.52
2023-05-20T10:30:39.216Z,7.88
2023-05-20T10:33:07.915Z,6.00
2023-05-20T10:35:34.686Z,5.40
2023-05-20T10:38:01.349Z,15.10
2023-05-20T10:40:28.026Z,8.73
2023-05-20T10:42:54.761Z,6.80
2023-05-20T10:45:21.381Z,8.70
2023-05-20T10:47:48.261Z,11.23
2023-05-20T10:50:15.524Z,7.78
2023-05-20T10:52:42.168Z,8.60
2023-05-20T10:55:09.342Z,4.10
2023-05-20T10:57:36.461Z,10.50
2023-05-20T11:00:05.583Z,6.43
2023-05-20T11:02:32.272Z,6.80
2023-05-20T11:04:58.984Z,11.23
2023-05-20T11:07:25.957Z,5.85
2023-05-20T11:09:52.595Z,6.18
2023-05-20T11:12:19.210Z,3.30
2023-05-20T11:14:46.054Z,8.20
2023-05-20T11:17:12.793Z,8.75
2023-05-20T11:19:39.889Z,3.55
2023-05-20T11:22:06.555Z,3.53
2023-05-20T11:24:33.252Z,5.50
2023-05-20T11:27:00.684Z,4.05
2023-05-20T11:29:27.412Z,4.53
2023-05-20T11:31:54.165Z,5.50
2023-05-20T11:34:23.393Z,6.47
2023-05-20T11:36:52.557Z,4.78
2023-05-20T11:39:19.677Z,7.55
2023-05-20T11:41:46.461Z,5.38
2023-05-20T11:44:16.768Z,3.65
2023-05-20T11:46:43.477Z,11.67
2023-05-20T11:49:10.248Z,10.77
2023-05-20T11:51:36.986Z,3.20
2023-05-20T11:54:03.643Z,5.10
2023-05-20T11:56:31.268Z,9.23
2023-05-20T11:58:58.900Z,9.27
2023-05-20T12:01:25.902Z,7.05
2023-05-20T12:03:52.944Z,3.35
2023-05-20T12:06:19.656Z,5.90
2023-05-20T12:08:47.476Z,6.63
2023-05-20T12:11:14.102Z,4.53
2023-05-20T12:13:41.020Z,4.97
2023-05-20T12:16:07.790Z,3.78
2023-05-20T12:18:34.435Z,11.20
2023-05-20T12:21:01.130Z,3.17
2023-05-20T12:23:29.516Z,4.88
2023-05-20T12:25:56.182Z,3.47
2023-05-20T12:28:22.840Z,2.78
2023-05-20T12:30:49.509Z,2.70
2023-05-20T12:33:16.552Z,4.88
2023-05-20T12:35:43.289Z,7.55
2023-05-20T12:38:10.008Z,5.10
2023-05-20T12:40:36.930Z,2.15
2023-05-20T12:43:04.330Z,5.25
2023-05-20T12:45:31.016Z,4.22
2023-05-20T12:47:57.756Z,6.07
2023-05-20T12:50:24.413Z,4.53
2023-05-20T12:52:51.099Z,3.97
2023-05-20T12:55:17.772Z,5.43
2023-05-20T12:57:44.439Z,2.63
2023-05-20T13:00:11.119Z,6.53
2023-05-20T13:02:39.799Z,9.73
2023-05-20T13:05:06.772Z,7.00
2023-05-20T13:07:33.759Z,3.80
2023-05-20T13:10:00.442Z,8.20
2023-05-20T13:12:27.220Z,3.17
2023-05-20T13:14:53.873Z,2.45
2023-05-20T13:17:20.606Z,4.70
2023-05-20T13:19:47.344Z,9.55
2023-05-20T13:22:14.001Z,4.07
2023-05-20T13:24:40.733Z,7.70
2023-05-20T13:27:07.461Z,3.53
2023-05-20T13:29:34.246Z,5.60
2023-05-20T13:32:02.098Z,8.07
2023-05-20T13:34:30.004Z,4.50
2023-05-20T13:36:56.670Z,4.70
2023-05-20T13:39:23.336Z,3.55
2023-05-20T13:41:50.031Z,6.65
2023-05-20T13:44:16.707Z,5.32
2023-05-20T13:46:43.535Z,4.93
2023-05-20T13:49:10.237Z,3.38
2023-05-20T13:51:36.890Z,3.25
2023-05-20T13:54:03.639Z,5.80
2023-05-20T13:56:30.286Z,5.00
2023-05-20T13:58:57.300Z,6.13
2023-05-20T14:01:24.126Z,3.22
2023-05-20T14:03:51.095Z,6.35
2023-05-20T14:06:19.049Z,7.78
2023-05-20T14:08:46.200Z,3.55
2023-05-20T14:11:12.927Z,8.95
2023-05-20T14:13:39.675Z,3.78
2023-05-20T14:16:06.377Z,6.80
2023-05-20T14:18:33.158Z,2.78
2023-05-20T14:20:59.884Z,6.63
2023-05-20T14:23:26.524Z,5.75
2023-05-20T14:25:53.217Z,3.85
2023-05-20T14:28:19.849Z,1.85
2023-05-20T14:30:46.507Z,6.43
2023-05-20T14:33:13.230Z,5.32
2023-05-20T14:35:40.013Z,5.63
2023-05-20T14:38:07.024Z,4.25
2023-05-20T14:40:33.813Z,3.42
2023-05-20T14:43:00.712Z,3.05
2023-05-20T14:45:27.416Z,3.15
2023-05-20T14:47:54.133Z,3.05
2023-05-20T14:50:20.833Z,3.40
2023-05-20T14:52:47.549Z,4.05
2023-05-20T14:55:14.184Z,6.82
2023-05-20T14:57:40.986Z,3.42
2023-05-20T15:00:07.735Z,5.85
2023-05-20T15:02:34.432Z,2.53
2023-05-20T15:05:01.217Z,2.22
2023-05-20T15:07:27.871Z,6.00
2023-05-20T15:09:54.724Z,4.78
2023-05-20T15:12:21.436Z,3.42
2023-05-20T15:14:48.124Z,4.22
2023-05-20T15:17:14.816Z,7.93
2023-05-20T15:19:42.009Z,5.88
2023-05-20T15:22:08.751Z,3.28
2023-05-20T15:24:35.424Z,4.10
2023-05-20T15:27:02.067Z,2.88
2023-05-20T15:29:28.714Z,7.32
2023-05-20T15:31:55.488Z,3.67
2023-05-20T15:34:22.202Z,4.25
2023-05-20T15:36:48.861Z,1.95
2023-05-20T15:39:15.492Z,8.82
2023-05-20T15:41:42.491Z,2.38
2023-05-20T15:44:09.296Z,3.50
2023-05-20T15:46:36.203Z,2.80
2023-05-20T15:49:02.946Z,3.53
2023-05-20T15:51:29.829Z,4.20
2023-05-20T15:53:56.530Z,5.65
2023-05-20T15:56:23.249Z,2.67
2023-05-20T15:58:49.991Z,6.90
2023-05-20T16:01:16.678Z,2.70
2023-05-20T16:03:43.588Z,4.22
2023-05-20T16:06:11.820Z,4.25
2023-05-20T16:08:38.505Z,4.40
2023-05-20T16:11:05.229Z,3.08
2023-05-20T16:13:31.982Z,4.10
2023-05-20T16:15:59.403Z,4.65
2023-05-20T16:18:26.279Z,2.67
2023-05-20T16:20:53.389Z,3.97
2023-05-20T16:23:20.003Z,2.63
2023-05-20T16:25:46.660Z,10.07
2023-05-20T16:28:13.298Z,3.28
2023-05-20T16:30:39.958Z,3.10
2023-05-20T16:33:07.630Z,2.10
2023-05-20T16:35:34.360Z,6.43
2023-05-20T16:38:01.422Z,3.58
2023-05-20T16:40:28.102Z,7.03
2023-05-20T16:42:54.828Z,1.85
2023-05-20T16:45:21.710Z,4.72
2023-05-20T16:47:48.477Z,3.38
2023-05-20T16:50:15.195Z,4.82
2023-05-20T16:52:41.950Z,2.28
2023-05-20T16:55:08.891Z,9.27
2023-05-20T16:57:36.192Z,11.85
2023-05-20T17:00:06.863Z,5.65
2023-05-20T17:02:33.527Z,5.15
2023-05-20T17:05:00.238Z,6.18
2023-05-20T17:07:26.888Z,6.20
2023-05-20T17:09:53.602Z,3.25
2023-05-20T17:12:20.301Z,10.93
2023-05-20T17:14:46.961Z,5.18
2023-05-20T17:17:14.934Z,2.20
2023-05-20T17:19:41.807Z,2.10
2023-05-20T17:22:08.435Z,5.68
2023-05-20T17:24:35.912Z,6.10
2023-05-20T17:27:03.761Z,2.67
2023-05-20T17:29:30.568Z,2.45
2023-05-20T17:31:57.228Z,4.82
2023-05-20T17:34:23.870Z,3.28
2023-05-20T17:36:50.513Z,2.35
2023-05-20T17:39:17.482Z,14.40
2023-05-20T17:41:44.347Z,6.03
2023-05-20T17:44:11.348Z,4.03
2023-05-20T17:46:38.234Z,6.95
2023-05-20T17:49:05.071Z,6.32
2023-05-20T17:51:31.971Z,2.42
2023-05-20T17:53:58.602Z,3.88
2023-05-20T17:56:26.534Z,4.40
2023-05-20T17:58:54.959Z,4.90
2023-05-20T18:01:23.448Z,2.28
2023-05-20T18:03:50.358Z,3.83
2023-05-20T18:06:18.113Z,1.92
2023-05-20T18:08:44.937Z,2.42
2023-05-20T18:11:11.731Z,2.40
2023-05-20T18:13:38.376Z,2.35
2023-05-20T18:16:05.248Z,2.83
2023-05-20T18:18:31.934Z,3.10
2023-05-20T18:20:58.580Z,7.95
2023-05-20T18:23:25.258Z,3.90
2023-05-20T18:25:51.962Z,1.73
2023-05-20T18:28:18.570Z,2.10
2023-05-20T18:30:45.265Z,111.72
2023-05-20T18:33:12.498Z,11.18
2023-05-20T18:35:39.415Z,1201.88
2023-05-20T18:38:07.198Z,1432.90
2023-05-20T18:40:33.990Z,1477.55
2023-05-20T18:43:01.165Z,1481.03
2023-05-20T18:45:27.959Z,1439.82
2023-05-20T18:47:54.885Z,1475.28
2023-05-20T18:50:21.702Z,1421.53
2023-05-20T18:52:48.464Z,1428.03
2023-05-20T18:55:15.155Z,1425.20
2023-05-20T18:57:41.793Z,1442.25
2023-05-20T19:00:12.106Z,1424.50
2023-05-20T19:02:39.190Z,1422.00
2023-05-20T19:05:05.903Z,1476.88
2023-05-20T19:07:33.289Z,1469.20
2023-05-20T19:09:59.969Z,1448.88
2023-05-20T19:12:26.684Z,1487.78
2023-05-20T19:14:53.504Z,1471.88
2023-05-20T19:17:21.311Z,1476.38
2023-05-20T19:19:48.346Z,1469.97
2023-05-20T19:22:15.312Z,1429.68
2023-05-20T19:24:42.056Z,1446.90
2023-05-20T19:27:08.826Z,1510.63
2023-05-20T19:29:35.528Z,1527.68
2023-05-20T19:32:02.194Z,1518.80
2023-05-20T19:34:28.935Z,1443.85
2023-05-20T19:36:57.105Z,1466.82
2023-05-20T19:39:24.262Z,1466.03
2023-05-20T19:41:50.989Z,1488.90
2023-05-20T19:44:18.988Z,1452.53
2023-05-20T19:46:45.652Z,1468.40
2023-05-20T19:49:12.298Z,1464.68
2023-05-20T19:51:38.952Z,1434.55
2023-05-20T19:54:05.623Z,1486.68
2023-05-20T19:56:32.283Z,1465.07
2023-05-20T19:59:01.831Z,1433.95
2023-05-20T20:01:29.050Z,1482.28
2023-05-20T20:03:55.822Z,1492.70
2023-05-20T20:06:22.481Z,1443.72
2023-05-20T20:08:49.295Z,1481.65
2023-05-20T20:11:15.998Z,1499.75
2023-05-20T20:13:42.682Z,1471.95
2023-05-20T20:16:09.399Z,1442.07
2023-05-20T20:18:36.147Z,1445.68
2023-05-20T20:21:06.047Z,1456.32
2023-05-20T20:23:32.874Z,1441.82
2023-05-20T20:25:59.535Z,1484.65
2023-05-20T20:28:26.365Z,1462.82
2023-05-20T20:30:53.039Z,1464.75
2023-05-20T20:33:20.092Z,1503.95
2023-05-20T20:35:47.515Z,1507.25
2023-05-20T20:38:15.175Z,1463.03
2023-05-20T20:40:42.314Z,1424.15
2023-05-20T20:43:09.678Z,1467.72
2023-05-20T20:45:37.027Z,1411.72
2023-05-20T20:48:05.570Z,1427.70
2023-05-20T20:50:33.219Z,1256.40
2023-05-20T20:52:59.876Z,1387.47
2023-05-20T20:55:27.373Z,1467.00
2023-05-20T20:57:57.790Z,1459.95
2023-05-20T21:00:26.841Z,1417.43
2023-05-20T21:02:53.754Z,1465.05
2023-05-20T21:05:21.676Z,1520.07
2023-05-20T21:07:50.233Z,1449.38
2023-05-20T21:10:20.748Z,1488.00
2023-05-20T21:12:47.806Z,1486.05
2023-05-20T21:15:15.155Z,1503.45
2023-05-20T21:17:41.894Z,5.68
2023-05-20T21:20:08.724Z,26.58
2023-05-20T21:22:35.367Z,7.07
2023-05-20T21:25:02.029Z,2.95
2023-05-20T21:27:28.658Z,7.10
2023-05-20T21:29:55.491Z,3.28
2023-05-20T21:32:22.476Z,3.88
2023-05-20T21:34:49.387Z,42.15
2023-05-20T21:37:16.081Z,280.20
2023-05-20T21:39:42.770Z,95.97
2023-05-20T21:42:09.461Z,489.33
2023-05-20T21:44:36.203Z,13.05
2023-05-20T21:47:02.854Z,3.25
2023-05-20T21:49:29.548Z,3.83
2023-05-20T21:51:56.225Z,55.72
2023-05-20T21:54:22.861Z,100.85
2023-05-20T21:56:49.513Z,4.82
2023-05-20T21:59:16.352Z,4.15
2023-05-20T22:01:43.072Z,4.97
2023-05-20T22:04:11.768Z,4.18
2023-05-20T22:06:38.631Z,4.72
2023-05-20T22:09:05.421Z,1.95
2023-05-20T22:11:32.194Z,4.28
2023-05-20T22:13:59.816Z,150.98
2023-05-20T22:16:26.624Z,6.20
2023-05-20T22:18:53.949Z,22.95
2023-05-20T22:21:21.575Z,19.30
2023-05-20T22:23:48.454Z,33.60
2023-05-20T22:26:15.166Z,3.97
2023-05-20T22:28:41.801Z,2.97
2023-05-20T22:31:08.483Z,4.15
2023-05-20T22:33:37.179Z,5.60
2023-05-20T22:36:03.976Z,27.73
2023-05-20T22:38:30.932Z,11.52
2023-05-20T22:40:57.623Z,4.40
2023-05-20T22:43:24.731Z,58.78
2023-05-20T22:45:51.493Z,3.72
2023-05-20T22:48:19.310Z,15.30
2023-05-20T22:50:46.400Z,1.90
2023-05-20T22:53:13.098Z,2.58
2023-05-20T22:55:39.809Z,37.92
2023-05-20T22:58:08.002Z,6.90
2023-05-20T23:00:34.644Z,40.10
2023-05-20T23:03:01.425Z,3.67
2023-05-20T23:05:30.166Z,17.77
2023-05-20T23:07:56.959Z,2.22
2023-05-20T23:10:25.714Z,2.40
2023-05-20T23:12:52.365Z,2.25
2023-05-20T23:15:19.463Z,7.53
2023-05-20T23:17:46.456Z,5.55
2023-05-20T23:20:14.519Z,4.72
2023-05-20T23:22:41.293Z,3.28
2023-05-20T23:25:07.987Z,2.78
2023-05-20T23:27:34.662Z,132.73
2023-05-20T23:30:01.320Z,41.45
2023-05-20T23:32:28.002Z,5.88
2023-05-20T23:34:55.460Z,3.65
2023-05-20T23:37:22.178Z,5.50
2023-05-20T23:39:48.851Z,3.72
2023-05-20T23:42:15.723Z,5.43
2023-05-20T23:44:42.436Z,2.47
2023-05-20T23:47:10.017Z,2.95
2023-05-20T23:49:37.354Z,2.58
2023-05-20T23:52:04.329Z,2.97
2023-05-20T23:54:34.413Z,56.05
2023-05-20T23:57:01.071Z,31.77
2023-05-20T23:59:27.761Z,80.50
